Time;durP1;ratioP1;P1;durP2;ratioP2;P2;SDS_P1;SDS_P2;PMS_P1;PMS_P2;Temp;Humidity;BMP_temperature;BMP_pressure;BME280_temperature;BME280_humidity;BME280_pressure;Samples;Min_cycle;Max_cycle;Signal;HPM_P1;HPM_P2
2020/12/13 00:01:39;;;;;;;32.33;14.53;;;;;;;2.79;89.13;97811.88;4948352;28;20031;-63
2020/12/13 00:04:05;;;;;;;32.47;13.57;;;;;;;2.81;89.05;97803.44;4937822;29;20028;-64
2020/12/13 00:06:31;;;;;;;32.27;14.00;;;;;;;2.83;89.08;97805.97;4941616;28;20062;-63
2020/12/13 00:08:57;;;;;;;31.10;15.20;;;;;;;2.83;89.31;97806.81;4956753;29;20143;-64
2020/12/13 00:11:22;;;;;;;34.57;16.07;;;;;;;2.85;88.65;97812.69;4955097;28;20038;-64
2020/12/13 00:13:48;;;;;;;33.40;14.13;;;;;;;2.85;88.92;97809.31;4973241;28;20043;-64
2020/12/13 00:16:14;;;;;;;34.10;16.23;;;;;;;2.84;88.98;97812.72;4971194;28;20043;-63
2020/12/13 00:18:42;;;;;;;36.67;16.20;;;;;;;2.89;88.93;97798.34;4971145;28;20027;-63
2020/12/13 00:21:10;;;;;;;32.83;14.30;;;;;;;2.92;88.67;97808.50;4952893;29;20117;-62
2020/12/13 00:23:36;;;;;;;33.57;14.77;;;;;;;2.87;88.51;97812.72;4954622;28;20032;-62
2020/12/13 00:26:05;;;;;;;31.77;14.80;;;;;;;2.89;88.75;97816.06;4973903;28;20432;-63
2020/12/13 00:28:31;;;;;;;34.60;16.07;;;;;;;2.88;88.87;97814.41;4974705;28;20023;-62
2020/12/13 00:30:56;;;;;;;35.00;14.83;;;;;;;2.78;88.66;97816.09;4975007;28;20439;-62
2020/12/13 00:33:21;;;;;;;35.23;14.37;;;;;;;2.81;88.80;97808.50;4974791;28;20022;-62
2020/12/13 00:35:47;;;;;;;31.40;14.87;;;;;;;2.84;88.41;97813.56;4960270;28;20464;-64
2020/12/13 00:38:13;;;;;;;35.57;15.73;;;;;;;2.84;88.88;97815.25;4956447;29;20023;-64
2020/12/13 00:40:38;;;;;;;33.37;15.60;;;;;;;2.85;88.37;97821.97;4968018;28;20407;-63
2020/12/13 00:43:03;;;;;;;32.73;13.63;;;;;;;2.85;88.70;97815.22;4976390;28;20034;-62
2020/12/13 00:45:29;;;;;;;29.37;13.90;;;;;;;2.84;88.90;97823.69;4965137;28;20038;-62
2020/12/13 00:47:54;;;;;;;31.40;13.63;;;;;;;2.83;88.95;97827.06;4956296;29;20027;-63
2020/12/13 00:50:19;;;;;;;32.33;14.57;;;;;;;2.83;88.95;97824.53;4963231;28;20027;-62
2020/12/13 00:52:45;;;;;;;31.83;14.20;;;;;;;2.87;88.88;97830.44;4975150;28;20027;-63
2020/12/13 00:55:10;;;;;;;35.43;14.70;;;;;;;2.86;88.61;97827.06;4974196;28;20153;-64
2020/12/13 00:57:36;;;;;;;27.90;13.87;;;;;;;2.87;88.25;97832.97;4975254;28;20038;-64
2020/12/13 01:00:01;;;;;;;36.20;15.17;;;;;;;2.92;88.25;97833.81;4965335;28;20031;-64
2020/12/13 01:02:26;;;;;;;30.33;13.73;;;;;;;2.91;87.90;97848.16;4936673;29;20020;-64
2020/12/13 01:04:53;;;;;;;28.10;13.83;;;;;;;2.90;87.76;97845.59;4937862;28;20034;-64
2020/12/13 01:07:18;;;;;;;30.43;14.67;;;;;;;2.85;87.79;97848.13;4956033;28;20118;-63
2020/12/13 01:09:43;;;;;;;37.70;15.20;;;;;;;2.85;87.69;97853.19;4954694;28;20067;-62
2020/12/13 01:12:09;;;;;;;31.27;14.17;;;;;;;2.84;88.38;97854.06;4974260;28;20125;-62
2020/12/13 01:14:35;;;;;;;29.70;12.63;;;;;;;2.85;87.96;97853.19;4974139;28;20055;-64
2020/12/13 01:17:00;;;;;;;30.07;14.33;;;;;;;2.82;88.51;97848.16;4973267;28;20419;-64
2020/12/13 01:19:26;;;;;;;36.47;13.27;;;;;;;2.82;88.18;97860.81;4971368;28;20027;-64
2020/12/13 01:21:51;;;;;;;32.90;15.07;;;;;;;2.82;88.04;97853.22;4970285;28;20042;-62
2020/12/13 01:24:17;;;;;;;30.43;15.70;;;;;;;2.81;87.97;97856.59;4974227;28;20026;-62
2020/12/13 01:26:42;;;;;;;33.43;14.47;;;;;;;2.85;87.63;97857.41;4960594;28;20039;-62
2020/12/13 01:29:08;;;;;;;28.53;14.27;;;;;;;2.86;87.79;97854.03;4955217;29;20035;-62
2020/12/13 01:31:34;;;;;;;31.93;13.97;;;;;;;2.82;87.67;97860.81;4966517;28;20026;-64
2020/12/13 01:33:59;;;;;;;32.03;14.10;;;;;;;2.78;87.59;97856.59;4976635;28;20030;-63
2020/12/13 01:36:24;;;;;;;29.83;14.33;;;;;;;2.82;87.90;97859.97;4967643;28;20093;-62
2020/12/13 01:38:51;;;;;;;27.63;13.43;;;;;;;2.84;88.16;97866.72;4959208;29;20051;-62
2020/12/13 01:41:17;;;;;;;29.13;14.90;;;;;;;2.86;88.11;97864.16;4965182;28;20438;-64
2020/12/13 01:44:00;;;;;;;30.00;13.33;;;;;;;2.90;87.60;97860.78;4977542;28;20031;-63
2020/12/13 01:46:26;;;;;;;29.10;14.03;;;;;;;2.83;88.01;97856.59;4961755;28;20038;-63
2020/12/13 01:48:57;;;;;;;31.67;13.73;;;;;;;2.83;87.94;97871.78;4939584;29;20099;-63
2020/12/13 01:51:39;;;;;;;27.73;14.00;;;;;;;2.74;87.80;97867.56;4962784;28;20046;-63
2020/12/13 01:54:10;;;;;;;27.63;14.10;;;;;;;2.68;88.20;97865.03;4977954;28;20440;-63
2020/12/13 01:56:37;;;;;;;29.03;14.00;;;;;;;2.68;87.67;97868.41;4977165;28;20039;-63
2020/12/13 01:59:03;;;;;;;32.10;14.30;;;;;;;2.63;87.73;97862.50;4978204;28;20023;-63
2020/12/13 02:01:34;;;;;;;26.37;14.67;;;;;;;2.68;88.42;97865.88;4949746;29;20437;-63
2020/12/13 02:04:00;;;;;;;30.40;14.97;;;;;;;2.72;88.04;97861.66;4939969;29;20035;-63
2020/12/13 02:06:31;;;;;;;33.53;15.37;;;;;;;2.71;87.84;97860.81;4944442;28;20062;-63
2020/12/13 02:08:56;;;;;;;31.00;13.90;;;;;;;2.64;88.15;97860.81;4978387;28;20045;-63
2020/12/13 02:11:22;;;;;;;27.17;13.87;;;;;;;2.68;88.14;97859.97;4973914;28;20034;-63
2020/12/13 02:13:49;;;;;;;38.17;17.30;;;;;;;2.68;88.07;97865.88;4939670;29;20457;-63
2020/12/13 02:16:15;;;;;;;35.67;14.87;;;;;;;2.71;88.49;97872.63;4939226;29;20465;-63
2020/12/13 02:18:42;;;;;;;33.73;15.90;;;;;;;2.72;88.12;97859.97;4958507;28;20441;-63
2020/12/13 02:21:10;;;;;;;32.40;14.87;;;;;;;2.78;88.10;97866.72;4958153;29;20027;-63
2020/12/13 02:23:38;;;;;;;30.43;14.50;;;;;;;2.74;88.42;97860.81;4958122;28;20126;-63
2020/12/13 02:26:05;;;;;;;27.90;14.57;;;;;;;2.78;88.50;97861.66;4958015;29;20035;-63
2020/12/13 02:28:31;;;;;;;27.93;13.90;;;;;;;2.81;88.15;97863.31;4959009;28;20073;-63
2020/12/13 02:30:56;;;;;;;32.80;14.57;;;;;;;2.83;88.18;97859.97;4957892;28;20428;-64
2020/12/13 02:33:22;;;;;;;32.33;15.50;;;;;;;2.85;87.78;97862.47;4956743;28;20027;-63
2020/12/13 02:35:47;;;;;;;29.40;15.03;;;;;;;2.81;88.17;97868.38;4957643;29;20082;-64
2020/12/13 02:38:12;;;;;;;29.80;14.93;;;;;;;2.81;87.82;97874.28;4956951;28;20023;-63
2020/12/13 02:40:38;;;;;;;27.67;13.20;;;;;;;2.70;87.82;97873.47;4957386;28;20361;-63
2020/12/13 02:43:03;;;;;;;32.00;14.23;;;;;;;2.70;87.66;97866.72;4957508;29;20491;-63
2020/12/13 02:45:29;;;;;;;32.33;16.70;;;;;;;2.71;87.90;97870.94;4961738;28;20039;-64
2020/12/13 02:47:54;;;;;;;29.93;15.00;;;;;;;2.73;87.74;97874.31;4959123;29;20345;-63
2020/12/13 02:50:19;;;;;;;33.17;15.20;;;;;;;2.70;87.87;97870.94;4956930;28;20027;-63
2020/12/13 02:52:45;;;;;;;33.80;16.07;;;;;;;2.75;87.94;97871.78;4958162;29;20099;-63
2020/12/13 02:55:11;;;;;;;37.37;14.37;;;;;;;2.73;88.09;97874.31;4957683;28;20027;-62
2020/12/13 02:57:40;;;;;;;30.90;12.73;;;;;;;2.77;87.64;97882.72;4958285;29;20082;-62
2020/12/13 03:00:06;;;;;;;28.03;12.97;;;;;;;2.70;87.84;97878.53;4952817;28;20027;-63
2020/12/13 03:02:31;;;;;;;31.30;13.83;;;;;;;2.76;87.43;97878.50;4939885;28;20039;-63
2020/12/13 03:04:57;;;;;;;30.00;12.67;;;;;;;2.71;87.84;97876.00;4941479;28;20573;-62
2020/12/13 03:07:22;;;;;;;29.33;14.00;;;;;;;2.61;87.56;97876.84;4956547;28;20110;-62
2020/12/13 03:09:48;;;;;;;28.30;14.40;;;;;;;2.60;88.50;97877.69;4947452;28;20039;-62
2020/12/13 03:12:13;;;;;;;29.77;14.27;;;;;;;2.57;87.67;97882.75;4953433;28;20060;-63
2020/12/13 03:14:38;;;;;;;32.80;16.53;;;;;;;2.55;88.50;97888.63;4953915;28;20133;-62
2020/12/13 03:17:05;;;;;;;31.77;13.20;;;;;;;2.53;88.87;97885.28;4955962;28;20042;-62
2020/12/13 03:19:31;;;;;;;26.37;14.97;;;;;;;2.60;88.84;97892.84;4955737;28;20121;-62
2020/12/13 03:21:56;;;;;;;31.97;14.40;;;;;;;2.52;88.36;97894.53;4957773;29;20067;-62
2020/12/13 03:24:21;;;;;;;31.33;14.50;;;;;;;2.45;88.94;97887.81;4952681;28;20465;-61
2020/12/13 03:26:47;;;;;;;35.30;15.03;;;;;;;2.45;88.82;97894.53;4939130;29;20048;-61
2020/12/13 03:29:12;;;;;;;32.43;15.57;;;;;;;2.48;89.24;97900.44;4937455;28;20027;-61
2020/12/13 03:31:38;;;;;;;34.23;14.77;;;;;;;2.48;88.97;97904.66;4957850;28;20070;-61
2020/12/13 03:34:03;;;;;;;32.17;15.43;;;;;;;2.47;89.01;97908.03;4956125;29;20393;-61
2020/12/13 03:36:29;;;;;;;34.77;15.20;;;;;;;2.43;88.89;97908.84;4956184;28;20090;-61
2020/12/13 03:38:54;;;;;;;36.27;14.70;;;;;;;2.54;89.06;97913.13;4931784;29;20478;-61
2020/12/13 03:41:20;;;;;;;30.30;13.40;;;;;;;2.48;88.96;97908.03;4936500;29;20042;-61
2020/12/13 03:43:45;;;;;;;31.00;14.90;;;;;;;2.55;88.92;97904.66;4947524;28;20035;-61
2020/12/13 03:46:10;;;;;;;34.87;14.47;;;;;;;2.63;88.71;97909.75;4952239;28;20036;-61
2020/12/13 03:48:36;;;;;;;32.57;14.77;;;;;;;2.68;88.59;97913.94;4936663;29;20031;-61
2020/12/13 03:51:01;;;;;;;32.33;14.90;;;;;;;2.67;88.56;97909.72;4950958;28;20700;-61
2020/12/13 03:53:29;;;;;;;32.67;15.17;;;;;;;2.72;88.43;97915.63;4957000;29;20516;-61
2020/12/13 03:55:54;;;;;;;29.50;14.57;;;;;;;2.76;88.08;97914.78;4955904;29;20035;-61
2020/12/13 03:58:20;;;;;;;27.50;13.17;;;;;;;2.75;88.21;97915.66;4955489;28;20034;-62
2020/12/13 04:00:45;;;;;;;28.17;14.30;;;;;;;2.79;88.02;97915.66;4955881;28;20042;-61
2020/12/13 04:03:12;;;;;;;31.53;14.20;;;;;;;2.82;88.00;97915.63;4955790;28;20106;-62
2020/12/13 04:05:37;;;;;;;32.67;13.73;;;;;;;2.77;88.05;97915.63;4955651;29;20031;-62
2020/12/13 04:08:03;;;;;;;27.90;12.87;;;;;;;2.79;88.34;97919.03;4955915;28;20031;-61
2020/12/13 04:10:29;;;;;;;29.00;14.17;;;;;;;2.78;88.86;97919.88;4956002;29;20105;-62
2020/12/13 04:12:54;;;;;;;26.40;13.87;;;;;;;2.80;88.67;97924.94;4964933;28;20051;-62
2020/12/13 04:15:20;;;;;;;27.17;14.10;;;;;;;2.83;88.53;97924.94;4975430;28;20027;-61
2020/12/13 04:17:46;;;;;;;29.97;14.77;;;;;;;2.82;88.37;97928.28;4974778;28;20038;-62
2020/12/13 04:20:12;;;;;;;28.57;13.60;;;;;;;2.88;88.49;97923.25;4966456;28;20035;-62
2020/12/13 04:22:38;;;;;;;28.77;14.10;;;;;;;2.92;87.86;97930.00;4946756;28;20342;-62
2020/12/13 04:25:05;;;;;;;29.00;14.13;;;;;;;2.97;88.34;97929.13;4937579;29;20027;-62
2020/12/13 04:27:30;;;;;;;28.27;12.80;;;;;;;2.94;88.20;97930.81;4948757;28;20531;-62
2020/12/13 04:29:56;;;;;;;28.10;15.03;;;;;;;2.94;88.17;97933.34;4975346;28;20114;-61
2020/12/13 04:32:21;;;;;;;33.47;14.60;;;;;;;2.98;88.23;97935.03;4974359;28;20030;-62
2020/12/13 04:34:48;;;;;;;28.07;13.33;;;;;;;2.99;87.90;97939.25;4975432;28;20483;-62
2020/12/13 04:37:13;;;;;;;30.77;13.97;;;;;;;3.00;87.95;97939.28;4974277;28;20131;-62
2020/12/13 04:39:39;;;;;;;28.47;14.07;;;;;;;3.02;87.77;97942.63;4976212;28;20030;-62
2020/12/13 04:42:04;;;;;;;30.80;14.53;;;;;;;3.05;87.74;97946.88;4974223;28;20041;-62
2020/12/13 04:44:31;;;;;;;32.30;15.07;;;;;;;3.02;87.41;97946.84;4975732;28;20045;-60
2020/12/13 04:47:02;;;;;;;26.60;13.07;;;;;;;3.04;87.79;97950.25;4957138;28;20094;-60
2020/12/13 04:49:30;;;;;;;32.20;13.40;;;;;;;3.02;87.89;97949.38;4972553;28;20023;-65
2020/12/13 04:51:58;;;;;;;31.30;14.37;;;;;;;3.05;87.66;97950.25;4938512;28;20027;-62
2020/12/13 04:54:24;;;;;;;30.67;13.60;;;;;;;3.04;87.87;97945.19;4936390;29;20027;-63
2020/12/13 04:56:51;;;;;;;28.63;14.63;;;;;;;3.00;87.81;97956.16;4965936;28;20089;-62
2020/12/13 04:59:18;;;;;;;31.20;15.37;;;;;;;3.01;87.41;97948.53;4975251;28;20066;-62
2020/12/13 05:01:47;;;;;;;29.67;15.13;;;;;;;2.99;87.34;97951.91;4974549;28;20031;-62
2020/12/13 05:04:14;;;;;;;27.40;12.67;;;;;;;2.96;87.58;97960.38;4974460;28;20397;-62
2020/12/13 05:06:41;;;;;;;29.20;14.77;;;;;;;3.04;87.85;97960.38;4962030;28;20043;-62
2020/12/13 05:09:09;;;;;;;29.73;13.40;;;;;;;3.05;87.38;97964.59;4956228;28;20039;-62
2020/12/13 05:11:35;;;;;;;29.23;14.90;;;;;;;3.09;87.58;97963.75;4962017;28;20027;-60
2020/12/13 05:14:02;;;;;;;31.50;14.83;;;;;;;3.11;87.42;97964.56;4959103;29;20127;-60
2020/12/13 05:16:27;;;;;;;29.87;14.63;;;;;;;3.11;87.33;97962.03;4957776;28;20023;-61
2020/12/13 05:18:53;;;;;;;35.27;15.90;;;;;;;3.16;86.50;97970.50;4959284;29;20110;-61
2020/12/13 05:21:23;;;;;;;33.73;14.83;;;;;;;3.18;86.72;97964.56;4956065;28;20027;-61
2020/12/13 05:23:49;;;;;;;34.70;15.20;;;;;;;3.11;86.91;97970.50;4940425;29;20040;-61
2020/12/13 05:26:15;;;;;;;31.63;14.00;;;;;;;3.14;87.06;97977.25;4939565;28;20092;-61
2020/12/13 05:28:46;;;;;;;31.90;14.63;;;;;;;3.15;87.01;97974.69;4959925;28;20449;-61
2020/12/13 05:31:14;;;;;;;30.97;14.97;;;;;;;3.13;87.29;97975.56;4958533;29;20031;-61
2020/12/13 05:33:44;;;;;;;30.77;15.50;;;;;;;3.11;86.97;97977.22;4958958;28;20357;-62
2020/12/13 05:36:09;;;;;;;29.37;14.80;;;;;;;3.09;87.15;97984.00;4958902;29;20338;-61
2020/12/13 05:38:39;;;;;;;31.70;15.77;;;;;;;3.10;87.26;97985.66;4958859;28;20062;-61
2020/12/13 05:41:06;;;;;;;33.97;16.40;;;;;;;3.10;87.35;97980.59;4958341;29;20037;-61
2020/12/13 05:43:37;;;;;;;33.70;15.50;;;;;;;3.10;87.11;97988.19;4958516;28;20042;-61
2020/12/13 05:51:39;;;;;;;36.30;15.57;;;;;;;3.09;87.00;97999.19;4917971;29;20040;-61
2020/12/13 05:54:24;;;;;;;30.97;12.87;;;;;;;3.10;86.86;97995.78;4900553;29;20048;-61
2020/12/13 05:56:58;;;;;;;32.05;13.35;;;;;;;3.10;86.52;97998.31;4899217;29;20044;-61
2020/12/13 05:59:24;;;;;;;29.80;14.80;;;;;;;3.07;86.40;98006.78;4919750;29;20123;-61
2020/12/13 06:01:55;;;;;;;34.63;17.57;;;;;;;3.11;86.82;98002.56;4917772;29;20449;-61
2020/12/13 06:04:44;;;;;;;27.70;15.17;;;;;;;3.12;85.81;98005.09;4918252;29;20107;-61
2020/12/13 06:07:11;;;;;;;33.93;13.93;;;;;;;3.07;85.63;98006.78;4902260;29;20031;-61
2020/12/13 06:09:39;;;;;;;26.70;14.17;;;;;;;3.12;85.79;98006.78;4918224;29;20040;-61
2020/12/13 06:12:07;;;;;;;28.97;14.57;;;;;;;3.13;86.03;98008.47;4917947;29;20123;-61
2020/12/13 06:14:33;;;;;;;33.37;15.20;;;;;;;3.12;85.82;98010.16;4918094;29;20032;-61
2020/12/13 06:17:01;;;;;;;29.13;15.37;;;;;;;3.12;85.77;98011.84;4917761;29;20040;-61
2020/12/13 06:19:29;;;;;;;32.27;15.23;;;;;;;3.12;85.89;98012.69;4902379;29;20028;-62
2020/12/13 06:21:56;;;;;;;28.57;15.43;;;;;;;3.09;85.90;98019.47;4915192;29;20062;-62
2020/12/13 06:24:23;;;;;;;27.93;14.17;;;;;;;3.10;85.62;98024.50;4918835;29;20040;-61
2020/12/13 06:26:48;;;;;;;30.57;14.43;;;;;;;3.09;86.14;98029.59;4916827;29;20148;-62
2020/12/13 06:29:15;;;;;;;29.53;13.40;;;;;;;3.07;85.92;98024.50;4934256;29;20126;-62
2020/12/13 06:31:41;;;;;;;26.37;14.23;;;;;;;3.16;85.85;98037.19;4938376;29;20090;-62
2020/12/13 06:34:07;;;;;;;33.07;15.03;;;;;;;3.14;85.71;98032.97;4955646;28;20030;-61
2020/12/13 06:36:34;;;;;;;29.53;13.80;;;;;;;3.18;86.17;98042.25;4957311;29;20059;-61
2020/12/13 06:39:01;;;;;;;34.07;18.07;;;;;;;3.15;86.53;98039.69;4957354;28;20456;-62
2020/12/13 06:41:28;;;;;;;31.13;14.27;;;;;;;3.17;86.52;98049.00;4956543;29;20110;-62
2020/12/13 06:43:54;;;;;;;30.00;15.47;;;;;;;3.18;86.02;98047.31;4956251;29;20030;-61
2020/12/13 06:46:20;;;;;;;33.80;16.20;;;;;;;3.20;86.32;98054.06;4957902;29;20094;-61
2020/12/13 06:48:45;;;;;;;39.83;19.23;;;;;;;3.23;85.90;98055.75;4941273;29;20407;-62
2020/12/13 06:51:26;;;;;;;31.07;14.87;;;;;;;3.22;86.20;98062.50;4957284;29;20433;-61
2020/12/13 06:53:52;;;;;;;36.30;14.23;;;;;;;3.22;85.74;98069.28;4956777;28;20023;-62
2020/12/13 06:56:19;;;;;;;37.20;15.30;;;;;;;3.23;86.33;98064.19;4957335;29;20023;-62
2020/12/13 06:58:46;;;;;;;28.83;14.73;;;;;;;3.22;85.91;98066.75;4956354;28;20163;-62
2020/12/13 07:01:19;;;;;;;29.97;15.03;;;;;;;3.22;86.29;98070.09;4958268;29;20164;-61
2020/12/13 07:03:46;;;;;;;40.37;15.67;;;;;;;3.16;86.04;98072.63;4953162;28;20027;-61
2020/12/13 07:06:19;;;;;;;31.07;15.50;;;;;;;3.14;86.39;98071.78;4939874;29;20028;-62
2020/12/13 07:08:48;;;;;;;36.57;15.40;;;;;;;3.24;86.07;98077.69;4942961;28;20039;-59
2020/12/13 07:11:14;;;;;;;34.93;17.27;;;;;;;3.23;86.19;98078.53;4942081;28;20028;-60
2020/12/13 07:13:43;;;;;;;38.13;17.90;;;;;;;3.27;85.77;98085.28;4939532;28;20477;-61
2020/12/13 07:16:23;;;;;;;37.60;16.30;;;;;;;3.27;85.97;98081.94;4939633;28;20023;-62
2020/12/13 07:18:59;;;;;;;34.97;16.80;;;;;;;3.31;85.52;98086.97;4938923;28;20570;-62
2020/12/13 07:21:25;;;;;;;30.93;15.10;;;;;;;3.30;85.34;98089.53;4940082;28;20032;-61
2020/12/13 07:23:50;;;;;;;29.10;14.43;;;;;;;3.36;85.13;98094.59;4941062;28;20766;-61
2020/12/13 07:26:17;;;;;;;32.63;15.67;;;;;;;3.39;84.16;98100.53;4941082;28;20032;-61
2020/12/13 07:28:46;;;;;;;28.47;13.67;;;;;;;3.38;84.26;98101.38;4939808;28;20467;-61
2020/12/13 07:31:12;;;;;;;32.57;15.97;;;;;;;3.45;84.27;98105.59;4939423;28;20154;-61
2020/12/13 07:33:37;;;;;;;39.23;18.23;;;;;;;3.40;84.25;98107.25;4942198;28;20020;-61
2020/12/13 07:36:03;;;;;;;35.60;17.43;;;;;;;3.44;84.98;98103.88;4940882;28;20035;-62
2020/12/13 07:38:29;;;;;;;34.90;17.97;;;;;;;3.43;84.36;98107.28;4940814;28;20453;-62
2020/12/13 07:40:55;;;;;;;34.37;19.17;;;;;;;3.54;84.03;98110.66;4940402;28;20471;-61
2020/12/13 07:43:20;;;;;;;34.27;17.20;;;;;;;3.58;83.99;98114.88;4939145;28;20031;-61
2020/12/13 07:45:46;;;;;;;32.33;16.13;;;;;;;3.68;83.49;98114.06;4940238;28;20110;-61
2020/12/13 07:48:12;;;;;;;29.27;15.40;;;;;;;3.73;83.48;98118.28;4938524;28;20028;-61
2020/12/13 07:50:46;;;;;;;27.60;14.73;;;;;;;3.80;82.80;98120.78;4942167;28;20050;-61
2020/12/13 07:53:22;;;;;;;28.13;16.73;;;;;;;3.74;82.62;98123.31;4937464;28;20019;-60
2020/12/13 07:55:47;;;;;;;28.07;14.80;;;;;;;3.65;82.45;98123.31;4944559;28;20019;-60
2020/12/13 07:58:18;;;;;;;28.23;14.80;;;;;;;3.79;82.58;98115.72;4939300;28;20028;-60
2020/12/13 08:00:43;;;;;;;28.37;14.97;;;;;;;3.74;82.17;98123.31;4940213;28;20019;-60
2020/12/13 08:03:09;;;;;;;31.67;14.60;;;;;;;3.77;81.76;98132.63;4938299;28;20051;-61
2020/12/13 08:05:35;;;;;;;30.60;15.13;;;;;;;3.76;81.86;98126.72;4943627;28;20028;-60
2020/12/13 08:08:01;;;;;;;28.97;15.97;;;;;;;3.78;81.99;98129.25;4937260;28;20024;-61
2020/12/13 08:10:30;;;;;;;30.37;15.67;;;;;;;3.86;81.50;98128.38;4936962;28;20464;-60
2020/12/13 08:12:57;;;;;;;30.20;16.40;;;;;;;3.86;81.59;98133.44;4937970;28;20046;-61
2020/12/13 08:15:23;;;;;;;28.60;15.33;;;;;;;3.88;81.25;98136.84;4938317;28;20054;-61
2020/12/13 08:18:13;;;;;;;26.77;15.50;;;;;;;3.97;81.26;98141.06;4938078;28;20161;-62
2020/12/13 08:20:45;;;;;;;33.47;16.93;;;;;;;4.01;81.20;98148.69;4938776;28;20023;-61
2020/12/13 08:23:13;;;;;;;30.90;15.93;;;;;;;4.09;81.05;98151.19;4941448;28;20144;-61
2020/12/13 08:25:40;;;;;;;26.80;14.30;;;;;;;4.09;80.48;98151.19;4938865;28;20019;-61
2020/12/13 08:28:06;;;;;;;27.63;14.50;;;;;;;4.11;80.43;98152.91;4940309;28;20344;-62
2020/12/13 08:30:32;;;;;;;28.37;14.77;;;;;;;4.01;79.79;98150.38;4938092;28;20414;-62
2020/12/13 08:32:59;;;;;;;25.73;13.90;;;;;;;4.14;79.53;98155.44;4947680;29;20055;-61
2020/12/13 08:35:27;;;;;;;26.23;13.93;;;;;;;4.22;79.99;98157.09;4956659;29;20053;-61
2020/12/13 08:37:58;;;;;;;30.47;15.70;;;;;;;4.32;78.79;98159.63;4954307;28;20527;-61
2020/12/13 08:40:37;;;;;;;23.10;13.83;;;;;;;4.30;78.66;98161.31;4955003;28;20027;-62
2020/12/13 08:43:03;;;;;;;27.00;14.80;;;;;;;4.32;79.07;98167.25;4953111;28;20027;-61
2020/12/13 08:45:29;;;;;;;25.17;14.20;;;;;;;4.32;78.55;98164.72;4954458;29;20023;-61
2020/12/13 08:48:05;;;;;;;29.13;14.37;;;;;;;4.49;77.91;98165.50;4954911;28;20044;-61
2020/12/13 08:50:40;;;;;;;25.37;13.97;;;;;;;4.46;77.89;98168.03;4947208;29;20031;-61
2020/12/13 08:53:26;;;;;;;28.73;15.43;;;;;;;4.47;77.80;98177.34;4954842;28;20035;-61
2020/12/13 08:56:03;;;;;;;32.13;14.03;;;;;;;4.53;77.50;98181.56;4955335;29;20049;-62
2020/12/13 08:58:29;;;;;;;27.43;14.50;;;;;;;4.47;78.34;98184.13;4955036;28;20042;-61
2020/12/13 09:01:07;;;;;;;32.23;16.43;;;;;;;4.48;77.65;98188.34;4949536;28;20027;-61
2020/12/13 09:03:32;;;;;;;26.63;14.10;;;;;;;4.37;78.01;98192.63;4937329;29;20098;-61
2020/12/13 09:05:57;;;;;;;27.57;14.90;;;;;;;4.37;77.80;98188.34;4940797;28;20381;-61
2020/12/13 09:08:23;;;;;;;29.57;14.10;;;;;;;4.40;77.80;98198.53;4956433;29;20039;-61
2020/12/13 09:10:49;;;;;;;28.57;14.97;;;;;;;4.23;78.40;98200.22;4954492;28;20031;-60
2020/12/13 09:13:14;;;;;;;35.27;16.93;;;;;;;4.22;78.04;98198.53;4968670;28;20061;-60
2020/12/13 09:15:40;;;;;;;33.23;15.43;;;;;;;4.33;78.28;98198.53;4973370;28;20380;-60
2020/12/13 09:18:06;;;;;;;34.73;16.53;;;;;;;4.44;78.01;98200.22;4975257;28;20026;-61
2020/12/13 09:20:34;;;;;;;27.40;13.93;;;;;;;4.67;77.37;98204.41;4962687;28;20042;-61
2020/12/13 09:23:11;;;;;;;31.03;15.20;;;;;;;4.67;77.38;98199.31;4955785;29;20464;-60
2020/12/13 09:25:37;;;;;;;32.20;15.33;;;;;;;4.75;76.83;98197.59;4955012;29;20496;-60
2020/12/13 09:28:04;;;;;;;33.37;17.90;;;;;;;4.69;76.74;98200.16;4974557;28;20018;-60
2020/12/13 09:30:30;;;;;;;30.20;16.77;;;;;;;4.55;77.32;98201.03;4974118;28;20122;-60
2020/12/13 09:32:55;;;;;;;30.37;16.30;;;;;;;4.46;77.64;98200.19;4940114;28;20023;-60
2020/12/13 09:35:21;;;;;;;34.10;16.33;;;;;;;4.52;77.23;98201.03;4919367;29;20454;-60
2020/12/13 09:37:46;;;;;;;30.53;18.20;;;;;;;4.54;77.10;98211.19;4935890;28;20098;-61
2020/12/13 09:40:12;;;;;;;31.60;16.53;;;;;;;4.67;76.70;98206.94;4936094;29;20032;-60
2020/12/13 09:42:37;;;;;;;30.47;15.93;;;;;;;4.71;76.35;98209.44;4938665;28;20031;-61
2020/12/13 09:45:04;;;;;;;33.57;17.03;;;;;;;4.79;76.13;98207.75;4936089;29;20078;-61
2020/12/13 09:47:29;;;;;;;30.07;16.77;;;;;;;4.80;76.43;98204.34;4926226;28;20754;-61
2020/12/13 09:49:58;;;;;;;30.33;17.87;;;;;;;4.90;76.53;98203.47;4951140;28;20027;-61
2020/12/13 09:52:25;;;;;;;29.33;16.80;;;;;;;4.98;75.91;98208.50;4967609;28;20451;-61
2020/12/13 09:54:50;;;;;;;30.97;17.03;;;;;;;4.94;75.87;98202.59;4975530;28;20341;-61
2020/12/13 09:57:15;;;;;;;33.83;21.00;;;;;;;4.97;76.46;98206.81;4953629;28;20038;-61
2020/12/13 09:59:41;;;;;;;31.33;15.30;;;;;;;5.06;76.04;98206.78;4976138;28;20305;-61
2020/12/13 10:02:06;;;;;;;28.67;16.27;;;;;;;5.11;76.10;98194.91;4976866;28;20432;-60
2020/12/13 10:04:32;;;;;;;31.00;15.70;;;;;;;5.26;74.97;98199.91;4945260;29;20031;-61
2020/12/13 10:09:38;;;;;;;31.03;17.57;;;;;;;5.42;74.07;98208.31;4945352;28;20460;-61
2020/12/13 10:12:03;;;;;;;31.43;16.63;;;;;;;5.46;73.63;98208.28;4959427;28;20066;-61
2020/12/13 10:14:28;;;;;;;25.67;14.67;;;;;;;5.50;73.88;98209.13;4949061;29;20038;-61
2020/12/13 10:16:54;;;;;;;32.67;16.80;;;;;;;5.41;73.37;98204.94;4952924;28;20420;-62
2020/12/13 10:19:20;;;;;;;30.53;16.40;;;;;;;5.64;73.96;98196.31;4941684;28;20027;-61
2020/12/13 10:21:46;;;;;;;28.70;16.33;;;;;;;5.75;72.92;98203.03;4935581;29;20106;-62
2020/12/13 10:24:12;;;;;;;31.87;16.27;;;;;;;5.60;73.28;98205.66;4957632;28;20031;-62
2020/12/13 10:26:38;;;;;;;28.73;14.93;;;;;;;5.78;73.71;98200.44;4954103;28;20455;-61
2020/12/13 10:29:06;;;;;;;28.90;16.53;;;;;;;5.67;72.51;98202.22;4957618;28;20027;-61
2020/12/13 10:31:36;;;;;;;32.00;16.87;;;;;;;5.60;73.04;98199.75;4957537;28;20491;-61
2020/12/13 10:34:03;;;;;;;27.17;14.77;;;;;;;5.81;72.47;98204.69;4955598;28;20023;-61
2020/12/13 10:36:31;;;;;;;27.70;15.47;;;;;;;5.79;72.63;98197.06;4957242;28;20114;-61
2020/12/13 10:38:57;;;;;;;29.23;17.33;;;;;;;5.82;72.21;98194.47;4946686;28;20062;-61
2020/12/13 10:41:23;;;;;;;27.70;14.97;;;;;;;5.88;72.22;98196.19;4948618;28;20106;-61
2020/12/13 10:43:50;;;;;;;26.83;15.20;;;;;;;5.93;71.99;98197.00;4945491;28;20027;-62
2020/12/13 10:46:16;;;;;;;24.67;14.03;;;;;;;6.07;71.56;98197.72;4974140;28;20069;-61
2020/12/13 10:48:42;;;;;;;25.60;14.97;;;;;;;6.25;70.86;98197.56;4977220;28;20113;-61
2020/12/13 10:51:07;;;;;;;27.37;14.00;;;;;;;6.30;70.64;98194.97;4974965;28;20462;-62
2020/12/13 10:53:33;;;;;;;25.80;15.60;;;;;;;6.40;70.13;98202.53;4960562;28;20042;-62
2020/12/13 10:55:59;;;;;;;24.93;13.53;;;;;;;6.36;70.53;98200.88;4957745;28;20031;-60
2020/12/13 10:58:24;;;;;;;23.63;15.33;;;;;;;6.32;70.32;98199.19;4957427;29;20027;-61
2020/12/13 11:00:50;;;;;;;23.80;13.83;;;;;;;6.33;70.39;98198.34;4948654;28;20035;-60
2020/12/13 11:03:16;;;;;;;26.47;14.67;;;;;;;6.35;70.61;98198.34;4951305;28;20508;-61
2020/12/13 11:05:43;;;;;;;23.67;13.27;;;;;;;6.30;71.51;98200.91;4955547;28;20032;-61
2020/12/13 11:08:10;;;;;;;22.10;13.07;;;;;;;6.34;71.09;98192.41;4956079;29;20098;-61
2020/12/13 11:10:36;;;;;;;24.30;14.40;;;;;;;6.02;71.23;98191.84;4941351;28;20109;-61
2020/12/13 11:13:01;;;;;;;23.23;14.00;;;;;;;6.25;71.19;98196.72;4964466;28;20479;-61
2020/12/13 11:15:26;;;;;;;23.83;13.37;;;;;;;6.35;70.97;98185.59;4949933;28;20365;-61
2020/12/13 11:17:52;;;;;;;24.73;14.20;;;;;;;6.12;71.40;98195.13;4956442;29;20039;-61
2020/12/13 11:20:17;;;;;;;22.83;13.97;;;;;;;6.23;71.14;98184.03;4964914;28;20456;-61
2020/12/13 11:22:43;;;;;;;21.17;12.97;;;;;;;6.47;70.75;98184.63;4976012;28;20030;-60
2020/12/13 11:25:08;;;;;;;22.77;13.23;;;;;;;6.50;70.51;98182.91;4975561;28;20349;-61
2020/12/13 11:27:35;;;;;;;24.23;13.70;;;;;;;6.53;70.26;98172.69;4976139;28;20100;-62
2020/12/13 11:30:03;;;;;;;23.80;13.73;;;;;;;6.58;70.41;98181.09;4952438;29;20126;-63
2020/12/13 11:32:28;;;;;;;24.40;13.37;;;;;;;6.67;70.79;98173.38;4956651;29;20094;-62